Terminal Aerodrome Forecast
Issued by NWS

Home | Current Version | Previous Version | Text Only | Print | Product List | Glossary On
Versions: 1 2 3 4 5 6 7 8 9 10 11 12 13 14 15 16 17 18
000
FTUS43 KMPX 260253 AAB
TAFAXN
TAF AMD
KAXN 260253Z 2603/2624 30003KT P6SM VCTS SCT015 BKN050CB OVC090
     FM260400 35005KT P6SM SCT025 BKN050
     FM261600 35007KT P6SM SCT200=

USA.gov is the U.S. government's official web portal to all federal, state and local government web resources and services.